Friday, December 14, 2018, 12:50 PM EST
Back to Local

KHVN, Tweed-new Haven Airport

Location: East Haven, CT, United States Lat: 41.267
Local Time: 12:50 PM EST (17:50 GMT) Lon: -72.883
Time Zone: US/Eastern Elev: 13 ft

Show me the last for .
Show Coded

Time T Td Feel RH Dir Speed Gust Alt SLP Vis Weather Sky Remarks
2018-12-14 12:26 43 33 41 67 350° 3 - 30.41 - 10 BKN026 BKN060 None
2018-12-14 11:53 41 32 37 70 20° 6 - 30.44 30.44 10 SCT025 BKN060 OVC250 Pressure falling rapidly
2018-12-14 10:53 40 32 36 73 20° 6 - 30.48 30.48 10 BKN025 BKN060 None
2018-12-14 09:53 37 30 32 75 10° 6 - 30.52 30.52 10 BKN025 OVC065 None
2018-12-14 08:53 33 28 28 81 10° 6 - 30.52 30.52 9 OVC024 None
2018-12-14 07:53 29 25 23 84 20° 6 - 30.51 30.50 8 BKN022 BKN250 None
2018-12-14 06:53 28 25 23 88 350° 5 - 30.49 30.49 9 FEW020 24-hr Precip Total (7am): 0.01"
6-hr Min Temp (7am): 27.0°F
6-hr Max Temp (7am): 33.1°F
2018-12-14 05:53 27 24 19 88 20° 7 - 30.49 30.49 10 CLR None
2018-12-14 04:53 29 25 24 84 10° 5 - 30.49 30.49 10 CLR None
2018-12-14 03:53 31 26 26 81 360° 5 - 30.50 30.50 10 SCT041 None
2018-12-14 02:53 32 27 25 81 20° 8 - 30.51 30.50 10 OVC041 None
2018-12-14 01:53 32 27 24 81 20° 9 - 30.51 30.51 10 OVC042 None
2018-12-14 00:53 32 27 24 81 10° 9 - 30.52 30.52 10 OVC040 6-hr Min Temp (1am): 30.9°F
6-hr Max Temp (1am): 33.1°F
2018-12-14 00:38 32 27 25 81 10° 8 - 30.52 - 10 SCT020 OVC041 None
2018-12-13 23:53 32 27 24 81 360° 9 - 30.52 30.52 10 BKN019 OVC043 24-hr Min Temp (12am): 25.0°F
24-hr Max Temp (12am): 36.0°F
2018-12-13 22:53 32 27 24 81 360° 9 - 30.52 30.52 10 OVC019 None
2018-12-13 21:53 32 26 26 78 360° 7 - 30.52 30.52 10 OVC019 None
2018-12-13 20:53 32 26 26 78 20° 7 - 30.52 30.52 10 OVC019 None
2018-12-13 19:53 32 27 26 81 360° 7 - 30.51 30.51 10 OVC018 None
2018-12-13 18:53 32 28 26 85 360° 7 - 30.50 30.50 10 OVC018 6-hr Precip Total (7pm): 0.01"
6-hr Min Temp (7pm): 32.0°F
6-hr Max Temp (7pm): 36.0°F
2018-12-13 17:53 33 29 27 84 360° 7 - 30.50 30.50 10 OVC014 None
2018-12-13 16:53 34 30 28 85 10° 7 - 30.49 30.49 10 BKN009 OVC016 None
2018-12-13 15:57 32 29 26 88 10° 7 - 30.48 - 9 BKN009 OVC016 None
2018-12-13 15:55 32 29 25 88 10° 8 - 30.49 - 9 OVC016 None
2018-12-13 15:53 32 29 25 88 10° 8 - 30.49 30.48 9 OVC016 1-hr Precip Total: Trace
6-hr Precip Total (4pm): 0.01"
2018-12-13 15:50 32 28 26 86 10° 7 - 30.48 - 9 OVC016 1-hr Precip Total: Trace
2018-12-13 15:16 32 29 25 88 20° 8 - 30.47 - 2 -SN BR OVC014 1-hr Precip Total: Trace
2018-12-13 14:53 32 29 24 88 10° 9 - 30.47 30.47 1 -SN BR BKN014 OVC020 1-hr Precip Total: 0.01"
2018-12-13 14:42 33 29 25 84 360° 9 - 30.47 - 0 -SN BR BKN014 OVC020 1-hr Precip Total: Trace
2018-12-13 14:22 36 30 31 78 30° 6 - 30.46 - 1 -SN OVC018 1-hr Precip Total: Trace
2018-12-13 13:53 36 28 30 72 40° 7 - 30.45 30.45 10 OVC021 None
2018-12-13 12:53 36 26 30 66 50° 8 - 30.45 30.44 9 SCT026 BKN036 OVC075 6-hr Precip Total (1pm): 0.00"
6-hr Min Temp (1pm): 27.0°F
6-hr Max Temp (1pm): 36.0°F

Support USWX by starting your Amazon purchase here.